Terminal Aerodrome Forecast
Issued by NWS

Home | Current Version | Previous Version | Text Only | Print | Product List | Glossary On
Versions: 1 2 3 4 5 6 7 8 9 10 11 12 13 14
000
FTUS43 KICT 040603 RRA
TAFRSL
TAF
KRSL 040603Z 0406/0506 17015G22KT P6SM VCSH BKN150
     FM041500 18019G28KT P6SM SCT200
     FM050300 16015KT P6SM SCT200=

USA.gov is the U.S. government's official web portal to all federal, state and local government web resources and services.